createdAt,value
2019-05-23T03:16:36.430Z,8.20
2019-05-23T03:19:12.658Z,8.20
2019-05-23T03:21:42.954Z,8.20
2019-05-23T03:24:14.084Z,8.20
2019-05-23T03:27:15.465Z,8.10
2019-05-23T03:29:46.820Z,8.00
2019-05-23T03:32:38.795Z,7.90
2019-05-23T03:35:34.821Z,7.90
2019-05-23T03:38:04.200Z,7.80
2019-05-23T03:40:35.119Z,7.80
2019-05-23T03:43:06.523Z,7.70
2019-05-23T03:45:39.965Z,7.70
2019-05-23T03:48:11.603Z,7.60
2019-05-23T03:50:41.531Z,7.60
2019-05-23T03:53:10.782Z,7.60
2019-05-23T03:55:59.390Z,7.60
2019-05-23T03:58:30.136Z,7.60
2019-05-23T04:01:01.601Z,7.50
2019-05-23T04:03:30.769Z,7.50
2019-05-23T04:05:59.832Z,7.40
2019-05-23T04:08:29.771Z,7.40
2019-05-23T04:10:59.212Z,7.50
2019-05-23T04:13:28.344Z,7.50
2019-05-23T04:15:57.820Z,7.50
2019-05-23T04:18:26.888Z,7.40
2019-05-23T04:20:55.989Z,7.50
2019-05-23T04:23:25.152Z,7.60
2019-05-23T04:25:54.196Z,7.70
2019-05-23T04:28:23.246Z,7.90
2019-05-23T04:30:53.136Z,8.10
2019-05-23T04:33:22.411Z,8.20
2019-05-23T04:35:51.606Z,8.30
2019-05-23T04:38:20.697Z,8.40
2019-05-23T04:40:49.788Z,8.50
2019-05-23T04:43:18.956Z,8.60
2019-05-23T04:45:48.038Z,8.50
2019-05-23T04:48:17.468Z,8.50
2019-05-23T04:50:47.126Z,8.50
2019-05-23T04:53:16.290Z,8.50
2019-05-23T04:55:47.882Z,8.60
2019-05-23T04:58:17.371Z,8.70
2019-05-23T05:00:46.783Z,8.80
2019-05-23T05:03:18.142Z,8.90
2019-05-23T05:05:47.675Z,9.00
2019-05-23T05:08:16.868Z,9.00
2019-05-23T05:10:47.359Z,9.10
2019-05-23T05:13:17.735Z,9.10
2019-05-23T05:15:46.969Z,9.10
2019-05-23T05:18:16.225Z,9.20
2019-05-23T05:20:45.282Z,9.30
2019-05-23T05:23:14.484Z,9.40
2019-05-23T05:25:43.479Z,9.50
2019-05-23T05:28:13.861Z,9.50
2019-05-23T05:30:42.967Z,9.60
2019-05-23T05:33:12.424Z,9.70
2019-05-23T05:35:43.080Z,9.80
2019-05-23T05:38:12.244Z,9.90
2019-05-23T05:40:42.186Z,10.00
2019-05-23T05:43:11.669Z,10.10
2019-05-23T05:45:40.672Z,10.20
2019-05-23T05:48:09.938Z,10.30
2019-05-23T05:50:39.437Z,10.50
2019-05-23T05:53:08.875Z,10.50
2019-05-23T05:55:37.944Z,10.60
2019-05-23T05:58:07.053Z,10.70
2019-05-23T06:00:53.695Z,10.80
2019-05-23T06:03:23.244Z,10.90
2019-05-23T06:06:02.317Z,11.10
2019-05-23T06:08:32.162Z,11.20
2019-05-23T06:11:01.745Z,11.20
2019-05-23T06:13:30.881Z,11.20
2019-05-23T06:16:00.171Z,11.30
2019-05-23T06:18:29.433Z,11.40
2019-05-23T06:20:59.287Z,11.50
2019-05-23T06:23:28.897Z,11.60
2019-05-23T06:25:57.910Z,11.70
2019-05-23T06:28:27.085Z,11.80
2019-05-23T06:30:57.335Z,12.00
2019-05-23T06:33:26.985Z,12.00
2019-05-23T06:35:56.015Z,12.00
2019-05-23T06:38:25.857Z,12.20
2019-05-23T06:40:55.830Z,12.40
2019-05-23T06:43:25.584Z,12.60
2019-05-23T06:45:54.791Z,12.70
2019-05-23T06:48:25.344Z,12.80
2019-05-23T06:50:54.581Z,12.90
2019-05-23T06:53:23.596Z,13.10
2019-05-23T06:55:52.776Z,13.20
2019-05-23T06:58:23.045Z,13.30
2019-05-23T07:00:52.499Z,13.40
2019-05-23T07:03:21.678Z,13.60
2019-05-23T07:05:50.959Z,14.00
2019-05-23T07:08:25.174Z,14.40
2019-05-23T07:10:52.491Z,14.50
2019-05-23T07:13:22.224Z,15.00
2019-05-23T07:15:51.404Z,15.50
2019-05-23T07:18:20.453Z,15.80
2019-05-23T07:20:49.547Z,16.00
2019-05-23T07:23:19.488Z,15.90
2019-05-23T07:25:48.603Z,16.40
2019-05-23T07:28:17.625Z,16.90
2019-05-23T07:30:47.458Z,17.50
2019-05-23T07:33:16.638Z,17.90
2019-05-23T07:35:46.113Z,17.80
2019-05-23T07:38:15.408Z,17.50
2019-05-23T07:40:44.808Z,17.90
2019-05-23T07:43:14.111Z,18.60
2019-05-23T07:45:54.042Z,18.70
2019-05-23T07:48:23.256Z,18.80
2019-05-23T07:50:52.271Z,17.90
2019-05-23T07:53:49.709Z,17.80
2019-05-23T07:56:21.435Z,17.30
2019-05-23T07:58:50.884Z,16.40
2019-05-23T08:01:22.818Z,15.80
2019-05-23T08:03:52.806Z,15.60
2019-05-23T08:06:23.379Z,15.60
2019-05-23T08:08:52.523Z,15.60
2019-05-23T08:11:23.250Z,15.60
2019-05-23T08:13:53.484Z,15.30
2019-05-23T08:16:22.650Z,15.20
2019-05-23T08:18:52.048Z,15.10
2019-05-23T08:21:21.046Z,15.20
2019-05-23T08:23:50.201Z,15.20
2019-05-23T08:26:21.610Z,15.80
2019-05-23T08:29:12.870Z,16.80
2019-05-23T08:31:22.167Z,17.10
2019-05-23T08:33:51.626Z,17.00
2019-05-23T08:36:20.716Z,16.70
2019-05-23T08:38:49.843Z,17.80
2019-05-23T08:41:19.030Z,19.30
2019-05-23T08:43:48.259Z,20.60
2019-05-23T08:46:17.557Z,21.20
2019-05-23T08:48:46.621Z,21.80
2019-05-23T08:51:16.566Z,22.10
2019-05-23T08:53:45.723Z,22.40
2019-05-23T08:56:19.149Z,22.10
2019-05-23T08:58:46.899Z,20.90
2019-05-23T09:01:17.169Z,20.20
2019-05-23T09:03:46.332Z,20.80
2019-05-23T09:06:15.347Z,21.10
2019-05-23T09:08:45.447Z,20.20
2019-05-23T09:11:15.431Z,19.70
2019-05-23T09:13:44.500Z,19.60
2019-05-23T09:16:13.545Z,19.90
2019-05-23T09:18:42.615Z,19.70
2019-05-23T09:21:11.869Z,19.50
2019-05-23T09:23:40.969Z,20.50
2019-05-23T09:26:10.164Z,21.80
2019-05-23T09:28:39.385Z,20.90
2019-05-23T09:31:09.045Z,19.30
2019-05-23T09:33:38.129Z,18.60
2019-05-23T09:36:07.602Z,19.20
2019-05-23T09:38:36.646Z,20.70
2019-05-23T09:41:05.663Z,22.30
2019-05-23T09:43:34.679Z,22.60
2019-05-23T09:46:03.909Z,21.40
2019-05-23T09:48:33.168Z,21.00
2019-05-23T09:51:02.306Z,21.00
2019-05-23T09:53:31.661Z,20.80
2019-05-23T09:56:00.648Z,20.60
2019-05-23T09:58:29.782Z,21.20
2019-05-23T10:00:59.103Z,22.10
2019-05-23T10:03:28.100Z,22.30
2019-05-23T10:05:57.039Z,22.70
2019-05-23T10:08:26.170Z,23.00
2019-05-23T10:10:55.519Z,23.30
2019-05-23T10:13:38.674Z,24.00
2019-05-23T10:16:03.362Z,24.60
2019-05-23T10:18:32.707Z,25.40
2019-05-23T10:21:01.856Z,24.50
2019-05-23T10:23:30.979Z,24.60
2019-05-23T10:26:00.241Z,24.40
2019-05-23T10:28:29.244Z,24.90
2019-05-23T10:30:58.247Z,25.30
2019-05-23T10:33:27.414Z,25.50
2019-05-23T10:36:00.849Z,25.20
2019-05-23T10:38:29.407Z,23.50
2019-05-23T10:40:58.527Z,23.20
2019-05-23T10:43:27.770Z,23.30
2019-05-23T10:45:56.832Z,23.30
2019-05-23T10:48:27.899Z,24.00
2019-05-23T10:50:56.951Z,25.20
2019-05-23T10:53:26.156Z,25.90
2019-05-23T10:55:55.234Z,26.70
2019-05-23T10:58:24.782Z,27.00
2019-05-23T11:00:54.116Z,26.20
2019-05-23T11:03:24.036Z,25.40
2019-05-23T11:05:53.096Z,24.60
2019-05-23T11:08:28.119Z,25.10
2019-05-23T11:10:53.454Z,25.60
2019-05-23T11:13:22.511Z,26.50
2019-05-23T11:15:51.620Z,27.30
2019-05-23T11:18:20.800Z,27.90
2019-05-23T11:20:49.947Z,28.70
2019-05-23T11:23:23.717Z,28.30
2019-05-23T11:25:53.182Z,29.00
2019-05-23T11:28:22.940Z,28.30
2019-05-23T11:30:53.846Z,26.30
2019-05-23T11:33:23.670Z,25.50
2019-05-23T11:35:52.664Z,25.60
2019-05-23T11:38:22.556Z,26.70
2019-05-23T11:40:52.099Z,27.00
2019-05-23T11:43:21.117Z,27.30
2019-05-23T11:45:56.538Z,28.30
2019-05-23T11:48:25.895Z,29.00
2019-05-23T11:50:55.059Z,28.50
2019-05-23T11:53:24.472Z,29.70
2019-05-23T11:55:54.674Z,30.50
2019-05-23T11:58:24.354Z,29.80
2019-05-23T12:01:33.216Z,29.40
2019-05-23T12:04:14.886Z,29.20
2019-05-23T12:06:55.504Z,28.20
2019-05-23T12:09:19.575Z,26.90
2019-05-23T12:11:49.177Z,27.00
2019-05-23T12:14:18.299Z,27.70
2019-05-23T12:16:47.988Z,28.10
2019-05-23T12:19:17.266Z,28.40
2019-05-23T12:21:46.357Z,28.80
2019-05-23T12:24:15.518Z,28.40
2019-05-23T12:26:44.864Z,28.30
2019-05-23T12:29:14.482Z,28.50
2019-05-23T12:31:43.705Z,28.30
2019-05-23T12:34:13.052Z,28.40
2019-05-23T12:36:42.049Z,28.50
2019-05-23T12:39:11.610Z,28.50
2019-05-23T12:41:42.995Z,28.40
2019-05-23T12:44:12.177Z,28.30
2019-05-23T12:46:41.169Z,28.40
2019-05-23T12:49:17.243Z,27.90
2019-05-23T12:51:47.159Z,28.50
2019-05-23T12:54:16.356Z,28.90
2019-05-23T12:56:48.840Z,29.50
2019-05-23T12:59:16.839Z,28.90
2019-05-23T13:01:47.156Z,27.90
2019-05-23T13:04:17.408Z,28.00
2019-05-23T13:06:46.638Z,28.00
2019-05-23T13:09:16.216Z,28.10
2019-05-23T13:11:45.475Z,28.60
2019-05-23T13:14:14.607Z,28.70
2019-05-23T13:16:44.361Z,28.20
2019-05-23T13:19:13.749Z,27.30
2019-05-23T13:21:42.840Z,27.30
2019-05-23T13:24:12.018Z,26.60
2019-05-23T13:26:41.218Z,26.10
2019-05-23T13:29:10.310Z,27.00
2019-05-23T13:31:39.608Z,27.60
2019-05-23T13:34:09.163Z,27.80
2019-05-23T13:36:38.153Z,27.90
2019-05-23T13:39:09.713Z,28.00
2019-05-23T13:41:39.480Z,27.60
2019-05-23T13:44:08.670Z,26.90
2019-05-23T13:46:38.213Z,27.30
2019-05-23T13:49:07.367Z,27.20
2019-05-23T13:51:36.629Z,27.30
2019-05-23T13:54:05.853Z,27.30
2019-05-23T13:56:34.899Z,27.60
2019-05-23T13:59:04.431Z,26.80
2019-05-23T14:01:33.348Z,26.50
2019-05-23T14:04:02.522Z,26.10
2019-05-23T14:06:31.530Z,26.70
2019-05-23T14:09:00.586Z,26.90
2019-05-23T14:11:29.614Z,27.30
2019-05-23T14:14:01.628Z,27.70
2019-05-23T14:16:31.270Z,28.10
2019-05-23T14:19:00.318Z,28.10
2019-05-23T14:21:33.399Z,28.00
2019-05-23T14:24:02.645Z,27.90
2019-05-23T14:26:36.562Z,28.50
2019-05-23T14:29:05.804Z,27.60
2019-05-23T14:31:40.809Z,27.20
2019-05-23T14:34:12.491Z,27.10
2019-05-23T14:36:57.530Z,27.30
2019-05-23T14:39:35.985Z,27.10
2019-05-23T14:42:11.458Z,27.50
2019-05-23T14:44:40.480Z,27.20
2019-05-23T14:47:30.869Z,26.90
2019-05-23T14:50:14.665Z,27.00
2019-05-23T14:52:45.813Z,27.30
2019-05-23T14:55:15.366Z,26.80
2019-05-23T14:57:44.640Z,26.70
2019-05-23T15:00:14.088Z,26.70
2019-05-23T15:02:44.151Z,26.60
2019-05-23T15:05:14.006Z,26.60
2019-05-23T15:07:43.344Z,27.00
2019-05-23T15:10:12.974Z,27.30
2019-05-23T15:12:42.035Z,27.00
2019-05-23T15:15:11.311Z,26.80
2019-05-23T15:17:40.419Z,26.50
2019-05-23T15:20:11.966Z,26.70
2019-05-23T15:22:41.056Z,27.00
2019-05-23T15:25:10.859Z,26.80
2019-05-23T15:27:40.666Z,26.70
2019-05-23T15:30:10.166Z,26.60
2019-05-23T15:32:39.352Z,27.00
2019-05-23T15:35:08.627Z,26.30
2019-05-23T15:37:37.691Z,25.80
2019-05-23T15:40:06.855Z,26.30
2019-05-23T15:42:35.756Z,26.60
2019-05-23T15:45:05.282Z,26.80
2019-05-23T15:47:36.329Z,26.30
2019-05-23T15:50:11.178Z,26.60
2019-05-23T15:52:45.941Z,27.00
2019-05-23T15:55:40.473Z,27.00
2019-05-23T15:58:14.159Z,26.50
2019-05-23T16:00:58.985Z,26.50
2019-05-23T16:03:37.104Z,25.70
2019-05-23T16:06:08.310Z,25.60
2019-05-23T16:08:38.299Z,25.20
2019-05-23T16:11:07.427Z,25.60
2019-05-23T16:13:36.569Z,25.30
2019-05-23T16:16:05.974Z,24.30
2019-05-23T16:18:35.685Z,23.10
2019-05-23T16:21:04.886Z,22.50
2019-05-23T16:23:34.149Z,21.60
2019-05-23T16:26:03.304Z,20.90
2019-05-23T16:28:32.427Z,20.60
2019-05-23T16:31:01.423Z,20.30
2019-05-23T16:33:30.514Z,20.00
2019-05-23T16:35:59.759Z,19.80
2019-05-23T16:38:28.932Z,19.40
2019-05-23T16:40:57.911Z,19.20
2019-05-23T16:43:26.918Z,19.00
2019-05-23T16:45:56.021Z,18.80
2019-05-23T16:48:25.189Z,18.60
2019-05-23T16:50:54.432Z,18.70
2019-05-23T16:53:23.499Z,18.40
2019-05-23T16:56:01.500Z,18.30
2019-05-23T16:59:02.908Z,18.20
2019-05-23T17:01:54.794Z,18.10
2019-05-23T17:04:20.086Z,18.00
2019-05-23T17:06:57.944Z,17.70
2019-05-23T17:09:44.977Z,17.80
2019-05-23T17:12:45.287Z,17.80
2019-05-23T17:15:32.690Z,17.70
2019-05-23T17:18:19.926Z,17.70
2019-05-23T17:20:56.330Z,17.60
2019-05-23T17:23:38.682Z,17.50
2019-05-23T17:26:33.018Z,17.50
2019-05-23T17:29:04.148Z,17.50
2019-05-23T17:31:35.306Z,17.40
2019-05-23T17:34:05.004Z,17.30
2019-05-23T17:36:34.080Z,17.20
2019-05-23T17:39:03.331Z,17.20
2019-05-23T17:41:32.423Z,17.00
2019-05-23T17:44:01.479Z,17.00
2019-05-23T17:46:30.719Z,17.00
2019-05-23T17:48:59.714Z,16.90
2019-05-23T17:51:28.712Z,16.80
2019-05-23T17:53:57.724Z,16.80
2019-05-23T17:56:27.296Z,16.80
2019-05-23T17:58:56.275Z,16.80
2019-05-23T18:01:25.938Z,16.80
2019-05-23T18:03:55.586Z,16.70
2019-05-23T18:07:03.805Z,16.60
2019-05-23T18:09:33.025Z,16.50
2019-05-23T18:12:02.181Z,16.40
2019-05-23T18:14:31.718Z,16.40
2019-05-23T18:17:00.932Z,16.40
2019-05-23T18:19:30.250Z,16.40
2019-05-23T18:21:59.331Z,16.30
2019-05-23T18:24:28.863Z,16.20
2019-05-23T18:26:58.734Z,16.10
2019-05-23T18:29:28.004Z,15.90
2019-05-23T18:31:57.563Z,15.80
2019-05-23T18:34:26.728Z,15.80
2019-05-23T18:36:56.097Z,15.70
2019-05-23T18:39:26.287Z,15.60
2019-05-23T18:41:55.535Z,15.60
2019-05-23T18:44:25.239Z,15.50
2019-05-23T18:46:56.263Z,15.40
2019-05-23T18:49:25.658Z,15.30
2019-05-23T18:51:54.731Z,15.20
2019-05-23T18:54:23.831Z,15.10
2019-05-23T18:56:53.139Z,15.00
2019-05-23T18:59:22.680Z,14.90
2019-05-23T19:01:51.760Z,14.80
2019-05-23T19:04:21.137Z,14.70
2019-05-23T19:06:51.357Z,14.60
2019-05-23T19:09:21.814Z,14.50
2019-05-23T19:11:51.269Z,14.40
2019-05-23T19:14:20.435Z,14.30
2019-05-23T19:16:50.116Z,14.20
2019-05-23T19:19:19.936Z,14.10
2019-05-23T19:21:49.299Z,14.10
2019-05-23T19:24:19.646Z,14.00
2019-05-23T19:26:49.403Z,13.90
2019-05-23T19:29:18.931Z,13.80
2019-05-23T19:31:48.491Z,13.80
2019-05-23T19:34:17.727Z,13.70
2019-05-23T19:36:47.497Z,13.60
2019-05-23T19:39:17.205Z,13.40
2019-05-23T19:41:46.408Z,13.30
2019-05-23T19:44:15.529Z,13.20
2019-05-23T19:46:44.742Z,13.30
2019-05-23T19:49:14.329Z,13.30
2019-05-23T19:51:43.554Z,13.20
2019-05-23T19:54:12.647Z,13.10
2019-05-23T19:56:41.747Z,13.00
2019-05-23T19:59:10.908Z,12.90
2019-05-23T20:01:56.682Z,13.00
2019-05-23T20:04:30.980Z,13.00
2019-05-23T20:06:57.364Z,12.90
2019-05-23T20:09:27.887Z,12.70
2019-05-23T20:11:57.448Z,12.60
2019-05-23T20:14:26.428Z,12.60
2019-05-23T20:16:55.728Z,12.60
2019-05-23T20:19:24.790Z,12.60
2019-05-23T20:21:53.853Z,12.50
2019-05-23T20:24:23.019Z,12.40
2019-05-23T20:26:52.139Z,12.40
2019-05-23T20:29:21.309Z,12.30
2019-05-23T20:31:50.600Z,12.20
2019-05-23T20:34:19.847Z,12.20
2019-05-23T20:36:48.881Z,12.10
2019-05-23T20:39:18.559Z,12.10
2019-05-23T20:41:47.607Z,12.10
2019-05-23T20:44:16.599Z,12.10
2019-05-23T20:46:45.608Z,12.00
2019-05-23T20:49:14.515Z,12.00
2019-05-23T20:51:45.698Z,12.00
2019-05-23T20:54:16.254Z,12.00
2019-05-23T20:56:45.174Z,11.90
2019-05-23T20:59:17.143Z,12.00
2019-05-23T21:01:46.361Z,11.90
2019-05-23T21:04:15.364Z,11.90
2019-05-23T21:06:44.829Z,11.80
2019-05-23T21:09:15.844Z,11.70
2019-05-23T21:11:45.217Z,11.70
2019-05-23T21:14:14.853Z,11.70
2019-05-23T21:16:45.958Z,11.70
2019-05-23T21:19:15.043Z,11.60
2019-05-23T21:21:44.828Z,11.60
2019-05-23T21:24:14.215Z,11.60
2019-05-23T21:26:43.410Z,11.60
2019-05-23T21:29:12.480Z,11.50
2019-05-23T21:31:41.626Z,11.40
2019-05-23T21:34:10.770Z,11.40
2019-05-23T21:36:41.509Z,11.40
2019-05-23T21:39:11.775Z,11.30
2019-05-23T21:41:40.767Z,11.20
2019-05-23T21:44:09.760Z,11.20
2019-05-23T21:46:38.836Z,11.20
2019-05-23T21:49:07.987Z,11.20
2019-05-23T21:51:36.973Z,11.10
2019-05-23T21:54:06.175Z,11.10
2019-05-23T21:56:35.234Z,11.20
2019-05-23T21:59:04.401Z,11.20
2019-05-23T22:02:01.785Z,11.00
2019-05-23T22:04:37.839Z,10.90
2019-05-23T22:07:07.725Z,10.90
2019-05-23T22:09:37.283Z,10.80
2019-05-23T22:12:08.889Z,10.70
2019-05-23T22:14:38.637Z,10.70
2019-05-23T22:17:07.907Z,10.70
2019-05-23T22:19:37.154Z,10.70
2019-05-23T22:22:06.916Z,10.60
2019-05-23T22:24:36.059Z,10.60
2019-05-23T22:27:08.087Z,10.70
2019-05-23T22:29:37.107Z,11.20
